Time;durP1;ratioP1;P1;durP2;ratioP2;P2;SDS_P1;SDS_P2;PMS_P1;PMS_P2;Temp;Humidity;BMP_temperature;BMP_pressure;BME280_temperature;BME280_humidity;BME280_pressure;Samples;Min_cycle;Max_cycle;Signal;HPM_P1;HPM_P2
2021/10/24 00:02:04;;;;;;;21.65;9.00;;;1.00;99.90;;;;;;5024111;28;20045;-74
2021/10/24 00:04:30;;;;;;;18.77;8.82;;;1.00;99.90;;;;;;5026119;28;20054;-76
2021/10/24 00:06:58;;;;;;;20.90;7.78;;;0.90;99.90;;;;;;5008173;28;20091;-75
2021/10/24 00:09:25;;;;;;;21.38;8.48;;;0.80;99.90;;;;;;5027054;28;20053;-75
2021/10/24 00:11:52;;;;;;;22.58;9.07;;;0.80;99.90;;;;;;5024341;28;20065;-73
2021/10/24 00:14:19;;;;;;;21.77;9.20;;;0.80;99.90;;;;;;5008907;28;20052;-75
2021/10/24 00:16:46;;;;;;;21.30;8.02;;;0.70;99.90;;;;;;5005519;28;20325;-75
2021/10/24 00:19:13;;;;;;;20.90;9.02;;;0.70;99.90;;;;;;5025763;28;20049;-73
2021/10/24 00:21:40;;;;;;;25.10;9.98;;;0.70;99.90;;;;;;5022018;28;20038;-74
2021/10/24 00:24:07;;;;;;;25.20;10.35;;;0.80;99.90;;;;;;5006069;28;20045;-76
2021/10/24 00:26:33;;;;;;;31.67;11.25;;;0.90;99.90;;;;;;5022063;28;20087;-76
2021/10/24 00:29:00;;;;;;;24.58;10.10;;;0.90;99.90;;;;;;5024332;28;20037;-76
2021/10/24 00:31:27;;;;;;;28.42;11.02;;;0.90;99.90;;;;;;5024566;28;20053;-75
2021/10/24 00:33:55;;;;;;;35.05;14.57;;;0.80;99.90;;;;;;5024043;28;20249;-76
2021/10/24 00:36:22;;;;;;;33.85;11.82;;;0.80;99.90;;;;;;5026049;28;20057;-74
2021/10/24 00:38:49;;;;;;;26.75;10.43;;;0.80;99.90;;;;;;5025598;28;20560;-75
2021/10/24 00:41:17;;;;;;;29.33;11.98;;;0.80;99.90;;;;;;5024619;28;20550;-76
2021/10/24 00:43:44;;;;;;;57.97;20.45;;;0.70;99.90;;;;;;5023450;28;20089;-77
2021/10/24 00:46:11;;;;;;;21.88;10.55;;;0.60;99.90;;;;;;5024879;28;20303;-76
2021/10/24 00:48:58;;;;;;;24.40;10.40;;;0.60;99.90;;;;;;5021992;28;20049;-74
2021/10/24 00:51:25;;;;;;;29.10;9.90;;;0.80;99.90;;;;;;5032591;28;20099;-75
2021/10/24 00:53:52;;;;;;;16.98;8.70;;;0.90;99.90;;;;;;5020972;28;20041;-75
2021/10/24 00:56:20;;;;;;;24.60;10.15;;;0.80;99.90;;;;;;5003224;28;20092;-74
2021/10/24 00:58:47;;;;;;;25.45;8.50;;;0.70;99.90;;;;;;5012642;28;20080;-73
2021/10/24 01:01:14;;;;;;;30.60;9.80;;;0.70;99.90;;;;;;5022946;28;20588;-73
2021/10/24 01:03:42;;;;;;;29.08;9.75;;;0.80;99.90;;;;;;5031605;28;20081;-76
2021/10/24 01:06:09;;;;;;;29.40;9.73;;;0.70;99.90;;;;;;5025259;28;20103;-75
2021/10/24 01:08:37;;;;;;;24.40;10.80;;;0.70;99.90;;;;;;5027559;28;20669;-75
2021/10/24 01:11:04;;;;;;;14.27;7.95;;;0.70;99.90;;;;;;5010282;28;20053;-74
2021/10/24 01:13:32;;;;;;;27.98;9.65;;;0.60;99.90;;;;;;5013496;28;20125;-74
2021/10/24 01:16:15;;;;;;;26.17;9.27;;;0.80;99.90;;;;;;5025929;28;20674;-74
2021/10/24 01:18:43;;;;;;;22.88;10.15;;;0.80;99.90;;;;;;5026593;28;20061;-73
2021/10/24 01:21:12;;;;;;;33.65;10.40;;;0.90;99.90;;;;;;5042674;28;20117;-74
2021/10/24 01:23:39;;;;;;;27.17;10.50;;;1.00;99.90;;;;;;5043482;28;21215;-74
2021/10/24 01:26:06;;;;;;;27.42;10.73;;;1.10;99.90;;;;;;5006432;28;20466;-73
2021/10/24 01:28:34;;;;;;;28.83;12.13;;;1.30;99.90;;;;;;5012377;28;20380;-74
2021/10/24 01:31:01;;;;;;;27.42;10.23;;;1.20;99.90;;;;;;5028501;28;20060;-73
2021/10/24 01:33:31;;;;;;;26.17;11.00;;;1.00;99.90;;;;;;5026979;28;20049;-74
2021/10/24 01:36:03;;;;;;;26.42;10.30;;;0.90;99.90;;;;;;5044484;28;20111;-73
2021/10/24 01:38:30;;;;;;;26.58;12.27;;;0.80;99.90;;;;;;5012389;28;20049;-75
2021/10/24 01:40:58;;;;;;;30.88;12.63;;;0.90;99.90;;;;;;5027847;28;20099;-74
2021/10/24 01:43:26;;;;;;;32.65;12.73;;;1.00;99.90;;;;;;5028903;28;20119;-75
2021/10/24 01:45:57;;;;;;;25.48;12.95;;;1.00;99.90;;;;;;5009909;28;20042;-74
2021/10/24 01:48:24;;;;;;;27.50;12.55;;;1.10;99.90;;;;;;5018616;28;20041;-75
2021/10/24 01:50:54;;;;;;;29.25;12.10;;;1.00;99.90;;;;;;5009099;28;20522;-75
2021/10/24 01:53:24;;;;;;;41.70;15.38;;;0.90;99.90;;;;;;5010972;28;20049;-75
2021/10/24 01:55:52;;;;;;;37.88;15.02;;;1.10;99.90;;;;;;5018630;28;20049;-74
2021/10/24 01:58:19;;;;;;;37.25;14.95;;;1.10;99.90;;;;;;5022532;28;20188;-75
2021/10/24 02:00:48;;;;;;;40.78;16.52;;;1.10;99.90;;;;;;5010479;28;20075;-76
2021/10/24 02:03:16;;;;;;;32.63;14.10;;;0.90;99.90;;;;;;5025987;28;20054;-73
2021/10/24 02:06:03;;;;;;;34.50;14.65;;;0.90;99.90;;;;;;5041985;28;20060;-74
2021/10/24 02:08:34;;;;;;;40.20;15.65;;;1.00;99.90;;;;;;5006874;28;20049;-74
2021/10/24 02:11:01;;;;;;;40.60;16.92;;;1.00;99.90;;;;;;5005492;28;20048;-75
2021/10/24 02:13:28;;;;;;;39.20;16.73;;;0.80;99.90;;;;;;4990961;28;20603;-76
2021/10/24 02:16:01;;;;;;;37.13;16.55;;;0.80;99.90;;;;;;4990039;28;20148;-74
2021/10/24 02:18:28;;;;;;;37.10;16.00;;;0.80;99.90;;;;;;5025961;28;20245;-74
2021/10/24 02:20:56;;;;;;;46.88;16.60;;;0.70;99.90;;;;;;5040483;28;20053;-76
2021/10/24 02:23:23;;;;;;;38.88;17.13;;;0.60;99.90;;;;;;5026394;28;20265;-75
2021/10/24 02:25:52;;;;;;;46.92;19.35;;;0.70;99.90;;;;;;5025473;28;20057;-76
2021/10/24 02:28:20;;;;;;;41.72;18.85;;;0.80;99.90;;;;;;5025723;28;20045;-73
2021/10/24 02:30:48;;;;;;;41.08;18.42;;;0.90;99.90;;;;;;5025518;28;20471;-74
2021/10/24 02:33:34;;;;;;;44.10;18.85;;;0.80;99.90;;;;;;5042610;28;20203;-76
2021/10/24 02:36:24;;;;;;;48.15;19.23;;;1.00;99.90;;;;;;5001662;28;20534;-76
2021/10/24 02:38:59;;;;;;;47.75;19.63;;;0.90;99.90;;;;;;5048725;28;20053;-75
2021/10/24 02:41:26;;;;;;;45.80;20.77;;;0.80;99.90;;;;;;5008406;28;20247;-75
2021/10/24 02:43:58;;;;;;;56.00;21.15;;;0.70;99.90;;;;;;5043394;28;20053;-75
2021/10/24 02:46:29;;;;;;;45.33;19.75;;;1.00;99.90;;;;;;5024608;28;20049;-74
2021/10/24 02:48:57;;;;;;;54.83;21.00;;;1.10;99.90;;;;;;5007921;28;20043;-74
2021/10/24 02:51:23;;;;;;;49.70;21.10;;;1.10;99.90;;;;;;5025615;28;20142;-76
2021/10/24 02:53:54;;;;;;;57.65;21.55;;;1.20;99.90;;;;;;4980986;28;20368;-77
2021/10/24 02:56:21;;;;;;;59.45;22.05;;;1.20;99.90;;;;;;5023548;28;20068;-76
2021/10/24 02:58:48;;;;;;;56.60;22.42;;;1.00;99.90;;;;;;5007562;28;20206;-74
2021/10/24 03:01:15;;;;;;;52.47;22.02;;;1.10;99.90;;;;;;5023740;28;20081;-76
2021/10/24 03:03:43;;;;;;;61.03;22.90;;;1.20;99.90;;;;;;5024467;28;20144;-76
2021/10/24 03:06:10;;;;;;;51.25;22.58;;;1.30;99.90;;;;;;5008998;28;20470;-77
2021/10/24 03:08:37;;;;;;;58.55;23.77;;;1.30;99.90;;;;;;4991173;28;20493;-76
2021/10/24 03:11:04;;;;;;;56.70;22.70;;;1.30;99.90;;;;;;5024899;28;20053;-77
2021/10/24 03:13:30;;;;;;;47.10;21.73;;;1.20;99.90;;;;;;5024700;28;20049;-78
2021/10/24 03:15:58;;;;;;;53.28;22.42;;;1.10;99.90;;;;;;5023763;28;20081;-80
2021/10/24 03:18:27;;;;;;;52.03;22.17;;;1.10;99.90;;;;;;5008486;28;20403;-79
2021/10/24 03:20:54;;;;;;;53.35;21.88;;;1.10;99.90;;;;;;5008569;28;20062;-77
2021/10/24 03:23:22;;;;;;;55.22;23.23;;;1.20;99.90;;;;;;4992688;28;20490;-78
2021/10/24 03:25:49;;;;;;;51.80;23.15;;;0.90;99.90;;;;;;5016593;28;20049;-77
2021/10/24 03:28:16;;;;;;;58.97;23.42;;;0.90;99.90;;;;;;5009417;28;20045;-78
2021/10/24 03:30:43;;;;;;;53.17;22.48;;;1.10;99.90;;;;;;5023906;28;20049;-79
2021/10/24 03:33:11;;;;;;;67.28;25.90;;;1.10;99.90;;;;;;5009102;28;20041;-79
2021/10/24 03:35:38;;;;;;;55.65;24.58;;;1.00;99.90;;;;;;5024475;28;20065;-77
2021/10/24 03:38:05;;;;;;;59.15;24.33;;;0.90;99.90;;;;;;5024667;28;20112;-79
2021/10/24 03:40:32;;;;;;;64.95;26.27;;;0.90;99.90;;;;;;5004573;28;20060;-77
2021/10/24 03:42:59;;;;;;;70.78;25.00;;;1.00;99.90;;;;;;5024171;28;20072;-78
2021/10/24 03:45:25;;;;;;;54.00;24.30;;;1.10;99.90;;;;;;5023531;28;20407;-78
2021/10/24 03:47:52;;;;;;;58.17;23.38;;;1.00;99.90;;;;;;5024856;28;20538;-79
2021/10/24 03:50:19;;;;;;;57.50;25.38;;;0.90;99.90;;;;;;4991166;28;20053;-77
2021/10/24 03:52:47;;;;;;;67.25;26.08;;;0.90;99.90;;;;;;5008468;28;20538;-78
2021/10/24 03:55:14;;;;;;;68.25;25.92;;;0.80;99.90;;;;;;4989360;28;20033;-80
2021/10/24 03:57:43;;;;;;;63.65;23.63;;;0.80;99.90;;;;;;5039506;28;20064;-78
2021/10/24 04:00:11;;;;;;;53.80;23.33;;;1.00;99.90;;;;;;5024404;28;20045;-79
2021/10/24 04:02:52;;;;;;;59.40;24.65;;;0.90;99.90;;;;;;5024492;28;20051;-77
2021/10/24 04:05:22;;;;;;;52.55;23.30;;;0.70;99.90;;;;;;5007493;28;20053;-78
2021/10/24 04:07:50;;;;;;;50.17;23.00;;;0.60;99.90;;;;;;5026203;28;20056;-78
2021/10/24 04:10:18;;;;;;;57.28;23.90;;;0.70;99.90;;;;;;5009370;28;20531;-78
2021/10/24 04:12:46;;;;;;;63.10;23.20;;;0.60;99.90;;;;;;5024879;28;20488;-77
2021/10/24 04:15:13;;;;;;;63.03;24.98;;;0.70;99.90;;;;;;5022976;28;20069;-78
2021/10/24 04:17:40;;;;;;;60.03;24.05;;;0.70;99.90;;;;;;5006560;28;20359;-78
2021/10/24 04:20:10;;;;;;;60.67;22.92;;;0.80;99.90;;;;;;5005824;28;20558;-76
2021/10/24 04:22:38;;;;;;;52.42;21.65;;;0.60;99.90;;;;;;4988526;28;20559;-78
2021/10/24 04:25:07;;;;;;;56.80;23.38;;;0.60;99.90;;;;;;5000855;28;20456;-78
2021/10/24 04:27:34;;;;;;;48.88;20.92;;;0.50;99.90;;;;;;5023475;28;20057;-76
2021/10/24 04:30:03;;;;;;;54.58;22.50;;;0.50;99.90;;;;;;5008876;28;20153;-78
2021/10/24 04:32:30;;;;;;;53.22;23.58;;;0.50;99.90;;;;;;5008149;28;20064;-78
2021/10/24 04:34:57;;;;;;;51.80;22.15;;;0.50;99.90;;;;;;5023767;28;20101;-78
2021/10/24 04:37:24;;;;;;;55.95;23.90;;;0.60;99.90;;;;;;5026145;28;20504;-78
2021/10/24 04:39:51;;;;;;;65.85;24.10;;;0.80;99.90;;;;;;5009044;28;20084;-78
2021/10/24 04:42:18;;;;;;;61.60;23.30;;;0.90;99.90;;;;;;5008477;28;20136;-78
2021/10/24 04:44:45;;;;;;;53.80;21.23;;;0.90;99.90;;;;;;5023662;28;20422;-78
2021/10/24 04:47:12;;;;;;;54.45;22.08;;;1.00;99.90;;;;;;5014299;28;20144;-78
2021/10/24 04:49:39;;;;;;;62.25;22.88;;;0.90;99.90;;;;;;5000134;28;20060;-77
2021/10/24 04:52:06;;;;;;;60.25;22.08;;;0.80;99.90;;;;;;5007910;28;20049;-77
2021/10/24 04:54:35;;;;;;;64.63;24.60;;;0.90;99.90;;;;;;5025991;28;20049;-78
2021/10/24 04:57:03;;;;;;;58.30;22.75;;;0.80;99.90;;;;;;4990977;28;20536;-76
2021/10/24 04:59:30;;;;;;;61.25;22.52;;;0.90;99.90;;;;;;5005708;28;20141;-78
2021/10/24 05:01:57;;;;;;;64.13;22.92;;;1.00;99.90;;;;;;5005251;28;20659;-79
2021/10/24 05:04:26;;;;;;;57.92;21.15;;;1.10;99.90;;;;;;5009364;28;20149;-79
2021/10/24 05:06:53;;;;;;;62.13;23.02;;;1.10;99.90;;;;;;5009331;28;20457;-78
2021/10/24 05:09:20;;;;;;;59.63;22.90;;;0.90;99.90;;;;;;5026434;28;20496;-81
2021/10/24 05:11:47;;;;;;;60.50;23.60;;;1.00;99.90;;;;;;5033932;28;20072;-77
2021/10/24 05:14:14;;;;;;;60.50;23.92;;;1.10;99.90;;;;;;5030499;28;20061;-78
2021/10/24 05:16:41;;;;;;;53.22;23.15;;;1.10;99.90;;;;;;5012941;28;20076;-78
2021/10/24 05:19:08;;;;;;;67.55;23.52;;;1.10;99.90;;;;;;5025800;28;20077;-80
2021/10/24 05:21:35;;;;;;;65.78;24.20;;;1.00;99.90;;;;;;5019128;28;20511;-78
2021/10/24 05:24:03;;;;;;;72.30;24.02;;;1.00;99.90;;;;;;5017595;28;20054;-78
2021/10/24 05:26:31;;;;;;;55.75;21.73;;;1.10;99.90;;;;;;4997440;28;20061;-77
2021/10/24 05:28:59;;;;;;;60.15;21.45;;;1.00;99.90;;;;;;5009668;28;20053;-78
2021/10/24 05:31:26;;;;;;;62.95;22.40;;;0.80;99.90;;;;;;5009620;28;20065;-76
2021/10/24 05:34:04;;;;;;;62.03;24.45;;;0.70;99.90;;;;;;5026181;28;20081;-79
2021/10/24 05:36:49;;;;;;;55.20;23.43;;;0.70;99.90;;;;;;5004516;28;20045;-80
2021/10/24 05:39:16;;;;;;;63.47;22.25;;;0.60;99.90;;;;;;4996077;28;20060;-79
2021/10/24 05:41:44;;;;;;;51.80;22.92;;;0.70;99.90;;;;;;4995207;28;20112;-78
2021/10/24 05:44:12;;;;;;;62.83;23.60;;;0.60;99.90;;;;;;5028695;28;20111;-77
2021/10/24 05:46:41;;;;;;;54.13;22.75;;;0.60;99.90;;;;;;5027865;28;20072;-77
2021/10/24 05:49:13;;;;;;;62.40;23.27;;;0.60;99.90;;;;;;5004347;28;20072;-79
2021/10/24 05:51:48;;;;;;;56.15;23.23;;;0.40;99.90;;;;;;5028016;28;20468;-78
2021/10/24 05:54:18;;;;;;;74.13;26.63;;;0.40;99.90;;;;;;5028101;28;20280;-77
2021/10/24 05:56:44;;;;;;;79.30;29.13;;;0.70;99.90;;;;;;4999453;28;20045;-76
2021/10/24 05:59:15;;;;;;;78.20;28.50;;;0.80;99.90;;;;;;5012040;28;20056;-77
2021/10/24 06:02:02;;;;;;;78.80;26.67;;;0.90;99.90;;;;;;5006461;28;20195;-79
2021/10/24 06:04:58;;;;;;;;;;;1.00;99.90;;;;;;5029286;28;20165;-76
2021/10/24 06:07:29;;;;;;;72.72;27.52;;;1.10;99.90;;;;;;5044119;28;20414;-79
2021/10/24 06:10:01;;;;;;;83.13;28.27;;;1.10;99.90;;;;;;5011162;28;20127;-77
2021/10/24 06:15:12;;;;;;;76.20;28.48;;;1.10;99.90;;;;;;5014529;28;20045;-75
2021/10/24 06:17:40;;;;;;;89.68;30.35;;;1.20;99.90;;;;;;5030374;28;20045;-75
2021/10/24 06:20:09;;;;;;;92.38;30.75;;;1.20;99.90;;;;;;5028410;28;20080;-79
2021/10/24 06:22:36;;;;;;;78.63;28.77;;;1.30;99.90;;;;;;5029122;28;20056;-77
2021/10/24 06:25:07;;;;;;;80.05;30.73;;;1.30;99.90;;;;;;5029244;28;20057;-76
2021/10/24 06:27:40;;;;;;;100.47;33.47;;;1.30;99.90;;;;;;5017125;28;20119;-78
2021/10/24 06:30:14;;;;;;;90.32;33.15;;;1.40;99.90;;;;;;5046211;28;20084;-78
2021/10/24 06:33:13;;;;;;;97.22;36.45;;;1.50;99.90;;;;;;5004600;28;20058;-78
2021/10/24 06:35:59;;;;;;;99.20;36.75;;;1.50;99.90;;;;;;5030830;28;20531;-78
2021/10/24 06:38:48;;;;;;;91.25;36.53;;;1.50;99.90;;;;;;5047578;28;20048;-79
2021/10/24 06:41:28;;;;;;;85.30;32.50;;;1.50;99.90;;;;;;5048100;28;20346;-77
2021/10/24 06:44:16;;;;;;;79.03;32.92;;;1.50;99.90;;;;;;5013894;28;20048;-77
2021/10/24 06:47:05;;;;;;;76.78;28.05;;;1.60;99.90;;;;;;5032159;28;20122;-78
2021/10/24 06:49:52;;;;;;;83.63;29.75;;;1.50;99.90;;;;;;5022494;28;20057;-79
2021/10/24 06:52:40;;;;;;;87.32;32.75;;;1.50;99.90;;;;;;5028124;28;20279;-77
2021/10/24 06:55:25;;;;;;;77.28;36.33;;;1.50;99.90;;;;;;5025834;28;20060;-78
2021/10/24 06:58:15;;;;;;;97.30;36.60;;;1.70;99.90;;;;;;5000824;28;20436;-78
2021/10/24 07:01:11;;;;;;;77.90;37.03;;;1.70;99.90;;;;;;5023696;28;20820;-78
2021/10/24 07:03:56;;;;;;;86.63;36.92;;;1.80;99.90;;;;;;5010477;28;20076;-78
2021/10/24 07:06:23;;;;;;;91.68;37.08;;;1.70;99.90;;;;;;5027630;28;20495;-77
2021/10/24 07:09:17;;;;;;;98.95;39.00;;;1.70;99.90;;;;;;5011107;28;20048;-76
2021/10/24 07:12:05;;;;;;;92.80;37.33;;;1.80;99.90;;;;;;5019451;28;20423;-78
2021/10/24 07:14:31;;;;;;;83.80;36.08;;;1.80;99.90;;;;;;5018783;28;20098;-77
2021/10/24 07:16:58;;;;;;;67.10;30.60;;;1.90;99.90;;;;;;5024930;28;20049;-78
2021/10/24 07:19:25;;;;;;;60.08;28.17;;;2.10;99.90;;;;;;5012355;28;20099;-78
2021/10/24 07:21:52;;;;;;;59.58;27.20;;;2.40;99.90;;;;;;5013678;28;20057;-78
2021/10/24 07:24:39;;;;;;;58.83;24.48;;;2.60;99.90;;;;;;5043991;28;20163;-77
2021/10/24 07:27:06;;;;;;;55.80;25.17;;;2.80;99.90;;;;;;5030563;28;20151;-77
2021/10/24 07:29:33;;;;;;;50.55;25.73;;;3.00;99.90;;;;;;5017605;28;20045;-77
2021/10/24 07:32:00;;;;;;;44.05;22.10;;;3.10;99.90;;;;;;5013769;28;20049;-77
2021/10/24 07:34:48;;;;;;;46.13;22.15;;;3.30;99.90;;;;;;5030529;28;20049;-77
2021/10/24 07:37:15;;;;;;;44.47;20.80;;;3.50;99.90;;;;;;5026714;28;20049;-77
2021/10/24 07:39:43;;;;;;;52.10;22.05;;;3.60;99.90;;;;;;5028141;28;20352;-76
2021/10/24 07:42:11;;;;;;;41.22;18.67;;;3.60;99.90;;;;;;5011278;28;20532;-76
2021/10/24 07:44:39;;;;;;;39.70;19.15;;;3.80;99.90;;;;;;4992528;28;20048;-76
2021/10/24 07:47:06;;;;;;;37.30;19.58;;;3.80;99.90;;;;;;5026248;28;20069;-76
2021/10/24 07:49:33;;;;;;;36.25;18.23;;;3.90;99.90;;;;;;5011117;28;20055;-76
2021/10/24 07:52:02;;;;;;;35.38;20.17;;;4.00;99.90;;;;;;4997383;28;20052;-76
2021/10/24 07:54:30;;;;;;;34.15;19.00;;;4.00;99.90;;;;;;5028951;28;20079;-75
2021/10/24 07:56:57;;;;;;;35.42;17.55;;;4.00;99.90;;;;;;5048357;28;20378;-76
2021/10/24 07:59:26;;;;;;;27.10;16.10;;;4.00;99.90;;;;;;5032273;28;20068;-76
2021/10/24 08:01:56;;;;;;;26.73;16.20;;;4.00;99.90;;;;;;5013338;28;20049;-76
2021/10/24 08:04:23;;;;;;;24.83;14.40;;;4.20;99.90;;;;;;5014286;28;20255;-76
2021/10/24 08:06:51;;;;;;;28.00;15.50;;;4.30;99.90;;;;;;5029345;28;20048;-77
2021/10/24 08:09:18;;;;;;;19.75;12.10;;;4.40;99.90;;;;;;5030475;28;20057;-76
2021/10/24 08:11:48;;;;;;;24.08;14.57;;;4.50;99.90;;;;;;5028525;28;20052;-77
2021/10/24 08:14:15;;;;;;;27.20;12.95;;;4.70;99.90;;;;;;5012913;28;20048;-76
2021/10/24 08:16:43;;;;;;;25.73;11.77;;;4.80;99.90;;;;;;5028385;28;20558;-77
2021/10/24 08:19:15;;;;;;;16.88;11.30;;;4.90;99.90;;;;;;5025495;28;20057;-77
2021/10/24 08:21:49;;;;;;;20.95;10.40;;;5.10;99.90;;;;;;5027915;28;20048;-76
2021/10/24 08:24:18;;;;;;;16.23;10.25;;;5.30;99.90;;;;;;5028255;28;20045;-77
2021/10/24 08:26:55;;;;;;;14.90;8.50;;;5.60;99.90;;;;;;5004590;28;20068;-76
2021/10/24 08:29:22;;;;;;;21.38;9.95;;;5.60;99.90;;;;;;5029742;28;20528;-76
2021/10/24 08:32:10;;;;;;;11.95;8.60;;;5.60;99.90;;;;;;5044150;28;20587;-76
2021/10/24 08:34:40;;;;;;;18.13;10.13;;;5.70;99.90;;;;;;5011935;28;20052;-77
2021/10/24 08:37:08;;;;;;;16.30;8.50;;;5.90;99.90;;;;;;5046037;28;20045;-77
2021/10/24 08:39:36;;;;;;;18.45;10.35;;;6.00;99.90;;;;;;5042291;28;20064;-78
2021/10/24 08:42:04;;;;;;;14.35;8.80;;;6.20;99.90;;;;;;5046709;28;20511;-77
2021/10/24 08:44:31;;;;;;;15.40;8.90;;;6.30;99.90;;;;;;5028223;28;20327;-76
2021/10/24 08:46:58;;;;;;;14.05;8.18;;;6.30;99.90;;;;;;4994382;28;20041;-77
2021/10/24 08:49:25;;;;;;;15.80;8.23;;;6.50;99.90;;;;;;5027658;28;20048;-77
2021/10/24 08:51:52;;;;;;;11.88;8.30;;;6.70;99.90;;;;;;5035603;28;20483;-77
2021/10/24 08:54:24;;;;;;;13.85;9.65;;;6.80;99.90;;;;;;5029995;28;20045;-77
2021/10/24 08:56:51;;;;;;;13.23;9.05;;;7.00;99.90;;;;;;5045911;28;20071;-77
2021/10/24 08:59:17;;;;;;;12.10;8.93;;;7.10;99.90;;;;;;5029447;28;20056;-77
2021/10/24 09:01:52;;;;;;;11.10;7.32;;;7.10;99.90;;;;;;5046862;28;20053;-76
2021/10/24 09:04:21;;;;;;;10.80;8.25;;;7.00;99.90;;;;;;5028448;28;20482;-76
2021/10/24 09:06:48;;;;;;;10.05;8.60;;;7.10;99.90;;;;;;5010208;28;20669;-76
2021/10/24 09:09:19;;;;;;;11.38;8.18;;;7.20;99.90;;;;;;5045798;28;20056;-76
2021/10/24 09:12:07;;;;;;;17.00;8.90;;;7.40;99.90;;;;;;4995171;28;20049;-75
2021/10/24 09:14:44;;;;;;;13.98;8.90;;;7.50;99.90;;;;;;5027230;28;20060;-76
2021/10/24 09:17:26;;;;;;;9.13;8.05;;;7.50;99.90;;;;;;5011154;28;20045;-77
2021/10/24 09:19:57;;;;;;;9.20;7.45;;;7.50;99.90;;;;;;4998287;28;20490;-76
2021/10/24 09:22:37;;;;;;;11.32;8.50;;;7.80;99.90;;;;;;5007919;28;20049;-77
2021/10/24 09:25:05;;;;;;;13.00;8.60;;;7.80;99.90;;;;;;5034926;28;20578;-77
2021/10/24 09:27:46;;;;;;;13.43;9.30;;;7.90;99.90;;;;;;5045988;28;20053;-77
2021/10/24 09:30:27;;;;;;;14.52;9.85;;;8.10;99.90;;;;;;5027834;28;20598;-77
2021/10/24 09:33:09;;;;;;;11.63;8.35;;;8.30;99.90;;;;;;5027802;28;20041;-77
2021/10/24 09:35:38;;;;;;;10.00;8.95;;;8.30;99.90;;;;;;5045716;28;20053;-77
2021/10/24 09:38:43;;;;;;;12.48;9.77;;;8.50;99.90;;;;;;5028509;28;20053;-77
2021/10/24 09:41:30;;;;;;;10.60;9.50;;;8.60;99.90;;;;;;5007381;28;20061;-77
2021/10/24 09:44:09;;;;;;;10.13;9.20;;;8.40;99.90;;;;;;5007420;28;20071;-76
2021/10/24 09:46:36;;;;;;;10.65;9.52;;;8.60;99.90;;;;;;5013363;28;20053;-76
2021/10/24 09:49:16;;;;;;;14.10;10.15;;;8.70;99.90;;;;;;5047316;28;20052;-78
2021/10/24 09:51:43;;;;;;;10.40;9.50;;;8.70;99.90;;;;;;5031082;28;20125;-76
2021/10/24 09:54:18;;;;;;;13.40;9.93;;;8.90;99.90;;;;;;5025866;28;20036;-77
2021/10/24 09:56:48;;;;;;;10.27;9.32;;;8.80;99.90;;;;;;5027694;28;20045;-76
2021/10/24 09:59:18;;;;;;;12.43;11.18;;;8.80;99.90;;;;;;5031805;28;20309;-77
2021/10/24 10:01:52;;;;;;;11.35;10.30;;;8.90;99.90;;;;;;5014570;28;20403;-77
2021/10/24 10:04:23;;;;;;;10.80;9.65;;;9.10;99.90;;;;;;5049865;28;20053;-76
2021/10/24 10:06:50;;;;;;;11.90;10.65;;;9.20;99.90;;;;;;5014680;28;20059;-77
2021/10/24 10:09:17;;;;;;;14.93;10.93;;;9.00;99.90;;;;;;5015114;28;20052;-77
2021/10/24 10:11:54;;;;;;;13.20;10.23;;;9.20;99.90;;;;;;5030670;28;20056;-76
2021/10/24 10:14:46;;;;;;;14.13;10.10;;;9.30;99.90;;;;;;5062568;28;20053;-77
2021/10/24 10:17:21;;;;;;;12.13;10.93;;;9.20;99.90;;;;;;5027275;28;20052;-77
2021/10/24 10:19:47;;;;;;;12.52;11.25;;;9.00;99.90;;;;;;5041210;28;20144;-77
2021/10/24 10:22:21;;;;;;;12.07;10.65;;;9.20;99.90;;;;;;5029313;28;20156;-77
2021/10/24 10:24:55;;;;;;;11.13;10.10;;;9.40;99.90;;;;;;5046508;28;20317;-77
2021/10/24 10:27:35;;;;;;;10.77;9.75;;;9.20;99.90;;;;;;5042388;28;20041;-73
2021/10/24 10:30:07;;;;;;;14.45;10.48;;;9.50;99.90;;;;;;5031146;28;20045;-75
2021/10/24 10:32:43;;;;;;;10.48;9.60;;;9.50;99.90;;;;;;5031109;28;20046;-76
2021/10/24 10:35:16;;;;;;;11.65;10.45;;;9.50;99.90;;;;;;5047794;28;20102;-74
2021/10/24 10:37:55;;;;;;;12.10;10.98;;;9.60;99.90;;;;;;5029561;28;20056;-75
2021/10/24 10:40:33;;;;;;;11.77;10.52;;;9.80;99.90;;;;;;5011732;28;20243;-75
2021/10/24 10:43:12;;;;;;;11.73;10.50;;;9.80;99.90;;;;;;5029118;28;20453;-75
2021/10/24 10:45:40;;;;;;;11.57;10.43;;;9.90;99.90;;;;;;5028891;28;20065;-75
2021/10/24 10:48:07;;;;;;;11.55;10.43;;;10.20;99.90;;;;;;5024113;28;20053;-74
2021/10/24 10:50:40;;;;;;;11.73;10.25;;;10.30;99.90;;;;;;5021595;28;20073;-75
2021/10/24 10:53:15;;;;;;;15.13;10.77;;;10.20;99.90;;;;;;5051417;28;20466;-75
2021/10/24 10:56:01;;;;;;;11.43;10.38;;;10.20;99.90;;;;;;5027483;28;20066;-74
2021/10/24 10:58:38;;;;;;;11.43;10.30;;;10.30;99.90;;;;;;5043397;28;20060;-75
2021/10/24 11:01:17;;;;;;;11.82;10.93;;;10.30;99.90;;;;;;5026693;28;20057;-74
2021/10/24 11:04:08;;;;;;;14.63;10.88;;;10.50;99.90;;;;;;5029629;28;20518;-76
2021/10/24 11:06:38;;;;;;;11.40;10.25;;;10.70;99.90;;;;;;5043782;28;20045;-75
2021/10/24 11:09:26;;;;;;;11.13;10.23;;;10.70;99.90;;;;;;5047258;28;20061;-74
2021/10/24 11:11:56;;;;;;;10.80;9.93;;;10.90;99.90;;;;;;5046037;28;20053;-75
2021/10/24 11:14:32;;;;;;;10.43;9.43;;;11.10;99.90;;;;;;5028750;28;20049;-75
2021/10/24 11:17:02;;;;;;;10.35;9.40;;;10.90;99.90;;;;;;5047039;28;20502;-75
2021/10/24 11:19:39;;;;;;;10.80;10.05;;;10.70;99.90;;;;;;5026252;28;20044;-75
2021/10/24 11:22:11;;;;;;;11.90;10.45;;;11.10;99.90;;;;;;5022239;28;20037;-75
2021/10/24 11:24:42;;;;;;;13.35;11.07;;;11.30;99.90;;;;;;5041566;28;20065;-74
2021/10/24 11:27:11;;;;;;;10.63;9.82;;;11.40;99.90;;;;;;5027738;28;20461;-75
2021/10/24 11:29:49;;;;;;;11.10;9.85;;;11.40;99.90;;;;;;5028810;28;20517;-74
2021/10/24 11:32:26;;;;;;;10.50;9.60;;;11.30;99.90;;;;;;5044248;28;20060;-75
2021/10/24 11:34:57;;;;;;;10.20;9.27;;;11.30;99.90;;;;;;5012155;28;20060;-76
2021/10/24 11:37:38;;;;;;;10.73;9.93;;;11.40;99.90;;;;;;5027870;28;20055;-76
2021/10/24 11:40:08;;;;;;;12.15;10.90;;;11.40;99.90;;;;;;5024816;28;20462;-76
2021/10/24 11:42:36;;;;;;;11.60;9.82;;;11.40;99.90;;;;;;5006933;28;20325;-76
2021/10/24 11:45:19;;;;;;;11.68;10.68;;;11.70;99.90;;;;;;5025908;28;20061;-76
2021/10/24 11:48:00;;;;;;;9.68;8.80;;;11.80;99.90;;;;;;5041224;28;20114;-75
2021/10/24 11:50:49;;;;;;;10.98;9.98;;;11.90;99.90;;;;;;5024489;28;20495;-74
2021/10/24 11:53:19;;;;;;;10.07;9.38;;;12.00;99.90;;;;;;5044630;28;20053;-74
2021/10/24 11:55:49;;;;;;;11.32;10.15;;;12.00;99.90;;;;;;5027727;28;20049;-74
2021/10/24 11:58:27;;;;;;;10.55;9.38;;;12.10;99.90;;;;;;5026498;28;20065;-75
2021/10/24 12:01:08;;;;;;;10.52;9.55;;;12.20;99.90;;;;;;5024692;28;20049;-74
2021/10/24 12:03:38;;;;;;;11.02;9.90;;;12.20;99.90;;;;;;5028207;28;20098;-74
2021/10/24 12:06:05;;;;;;;11.30;9.30;;;12.20;99.90;;;;;;5027614;28;20576;-75
2021/10/24 12:08:43;;;;;;;10.18;9.57;;;12.00;99.90;;;;;;5027982;28;20057;-75
2021/10/24 12:11:13;;;;;;;9.82;8.95;;;12.00;99.90;;;;;;5026624;28;20044;-75
2021/10/24 12:13:41;;;;;;;12.07;10.00;;;12.00;99.90;;;;;;5026842;28;20049;-74
2021/10/24 12:16:27;;;;;;;10.85;9.57;;;12.00;99.90;;;;;;5045328;28;20448;-76
2021/10/24 12:19:15;;;;;;;11.82;9.85;;;12.10;99.90;;;;;;5009986;28;20335;-76
2021/10/24 12:21:58;;;;;;;9.93;9.27;;;12.10;99.90;;;;;;5060525;28;20435;-75
2021/10/24 12:24:30;;;;;;;11.38;10.20;;;11.90;99.90;;;;;;5022484;28;20053;-76
2021/10/24 12:27:22;;;;;;;10.55;9.50;;;11.90;99.90;;;;;;5031750;28;20044;-75
2021/10/24 12:30:16;;;;;;;10.32;9.55;;;12.10;99.90;;;;;;5046307;28;20123;-75
2021/10/24 12:33:01;;;;;;;10.55;9.52;;;12.20;99.90;;;;;;5026135;28;20057;-75
2021/10/24 12:35:28;;;;;;;10.25;9.30;;;12.30;99.90;;;;;;5011403;28;20142;-75
2021/10/24 12:38:00;;;;;;;11.48;9.68;;;12.30;99.90;;;;;;5045037;28;20273;-76
2021/10/24 12:40:30;;;;;;;10.40;9.52;;;12.30;99.90;;;;;;5026935;28;20122;-75
2021/10/24 12:43:11;;;;;;;11.40;10.27;;;12.20;99.90;;;;;;5023116;28;20534;-75
2021/10/24 12:46:03;;;;;;;10.65;9.82;;;12.20;99.90;;;;;;5007881;28;20056;-75
2021/10/24 12:48:41;;;;;;;10.77;9.88;;;12.30;99.90;;;;;;5028604;28;20419;-75
2021/10/24 12:51:29;;;;;;;11.02;10.07;;;12.40;99.90;;;;;;5008012;28;20100;-75
2021/10/24 12:53:58;;;;;;;11.10;10.10;;;12.40;99.90;;;;;;5033688;28;20052;-74
2021/10/24 12:56:25;;;;;;;12.10;10.93;;;12.30;99.90;;;;;;5045345;28;20049;-75
2021/10/24 12:58:53;;;;;;;12.02;10.90;;;12.20;99.90;;;;;;5026630;28;20083;-74
2021/10/24 13:01:25;;;;;;;10.88;10.00;;;12.30;99.90;;;;;;5041488;28;20056;-74
2021/10/24 13:03:54;;;;;;;12.00;11.15;;;12.40;99.90;;;;;;5009261;28;20051;-75
2021/10/24 13:06:22;;;;;;;11.63;10.60;;;12.50;99.90;;;;;;5026972;28;20052;-74